Time;durP1;ratioP1;P1;durP2;ratioP2;P2;SDS_P1;SDS_P2;PMS_P1;PMS_P2;Temp;Humidity;BMP_temperature;BMP_pressure;BME280_temperature;BME280_humidity;BME280_pressure;Samples;Min_cycle;Max_cycle;Signal;HPM_P1;HPM_P2
2021/03/31 00:00:58;;;;;;;14.97;6.40;;;;;;;;;;6191769;23;20171;-90
2021/03/31 00:04:03;;;;;;;14.07;6.47;;;;;;;;;;6191756;23;20207;-88
2021/03/31 00:07:10;;;;;;;17.57;6.77;;;;;;;;;;6191272;23;20195;-88
2021/03/31 00:10:16;;;;;;;18.93;7.27;;;;;;;;;;6191523;23;20207;-91
2021/03/31 00:13:22;;;;;;;18.30;6.70;;;;;;;;;;6190500;23;20628;-89
2021/03/31 00:16:27;;;;;;;13.97;6.20;;;;;;;;;;6173964;23;20546;-89
2021/03/31 00:19:32;;;;;;;17.20;6.60;;;;;;;;;;6190956;23;20187;-88
2021/03/31 00:22:37;;;;;;;15.20;6.77;;;;;;;;;;6191840;23;20168;-87
2021/03/31 00:25:42;;;;;;;19.87;7.10;;;;;;;;;;6192040;23;20231;-89
2021/03/31 00:28:46;;;;;;;18.70;6.67;;;;;;;;;;6175014;23;20251;-87
2021/03/31 00:31:52;;;;;;;14.93;6.90;;;;;;;;;;6190259;23;20176;-86
2021/03/31 00:34:56;;;;;;;15.57;7.07;;;;;;;;;;6191308;23;20172;-88
2021/03/31 00:38:00;;;;;;;18.40;6.80;;;;;;;;;;6173777;23;20222;-89
2021/03/31 00:41:06;;;;;;;15.90;6.47;;;;;;;;;;6174027;23;20549;-89
2021/03/31 00:44:10;;;;;;;18.87;7.47;;;;;;;;;;6192182;23;20655;-88
2021/03/31 00:47:16;;;;;;;16.47;6.63;;;;;;;;;;6192280;23;20227;-89
2021/03/31 00:50:21;;;;;;;14.70;6.77;;;;;;;;;;6191079;23;20211;-86
2021/03/31 00:53:28;;;;;;;18.53;7.50;;;;;;;;;;6191327;23;20180;-87
2021/03/31 00:56:32;;;;;;;19.63;7.43;;;;;;;;;;6191796;23;20248;-87
2021/03/31 00:59:36;;;;;;;19.07;6.53;;;;;;;;;;6191412;23;20171;-88
2021/03/31 01:02:42;;;;;;;17.87;7.57;;;;;;;;;;6191645;23;20187;-88
2021/03/31 01:05:47;;;;;;;18.60;7.03;;;;;;;;;;6191018;23;20647;-87
2021/03/31 01:08:51;;;;;;;21.77;7.73;;;;;;;;;;6190615;23;20536;-89
2021/03/31 01:11:59;;;;;;;17.97;7.50;;;;;;;;;;6204766;23;20219;-87
2021/03/31 01:15:07;;;;;;;22.53;7.57;;;;;;;;;;6191100;23;20160;-89
2021/03/31 01:18:16;;;;;;;20.63;7.40;;;;;;;;;;6191350;23;20172;-88
2021/03/31 01:21:44;;;;;;;17.77;6.90;;;;;;;;;;6190741;23;20171;-88
2021/03/31 01:25:13;;;;;;;22.60;8.50;;;;;;;;;;6191502;23;20167;-88
2021/03/31 01:28:29;;;;;;;20.87;7.67;;;;;;;;;;6191855;23;20172;-88
2021/03/31 01:31:39;;;;;;;18.70;7.57;;;;;;;;;;6190785;23;20311;-88
2021/03/31 01:34:46;;;;;;;16.50;7.03;;;;;;;;;;6191009;23;20171;-87
2021/03/31 01:37:51;;;;;;;18.33;7.53;;;;;;;;;;6191060;23;20249;-88
2021/03/31 01:40:56;;;;;;;20.37;6.80;;;;;;;;;;6190693;23;20175;-87
2021/03/31 01:44:02;;;;;;;18.20;8.37;;;;;;;;;;6193374;23;20184;-87
2021/03/31 01:47:07;;;;;;;16.07;7.53;;;;;;;;;;6191297;23;20191;-87
2021/03/31 01:50:14;;;;;;;16.77;7.40;;;;;;;;;;6191525;23;20498;-89
2021/03/31 01:53:19;;;;;;;16.13;6.87;;;;;;;;;;6190897;23;20168;-88
2021/03/31 01:56:26;;;;;;;20.33;7.73;;;;;;;;;;6191365;23;20176;-88
2021/03/31 01:59:30;;;;;;;16.67;7.00;;;;;;;;;;6191677;23;20195;-88
2021/03/31 02:02:35;;;;;;;20.90;7.10;;;;;;;;;;6192052;23;20168;-89
2021/03/31 02:05:40;;;;;;;16.57;7.03;;;;;;;;;;6191704;23;20244;-88
2021/03/31 02:08:46;;;;;;;18.63;7.67;;;;;;;;;;6191361;23;20296;-89
2021/03/31 02:11:51;;;;;;;18.33;7.23;;;;;;;;;;6190192;23;20195;-89
2021/03/31 02:14:56;;;;;;;16.30;7.33;;;;;;;;;;6207796;23;20156;-89
2021/03/31 02:18:01;;;;;;;16.33;7.53;;;;;;;;;;6190983;23;20188;-88
2021/03/31 02:21:07;;;;;;;16.23;7.10;;;;;;;;;;6189554;23;20191;-88
2021/03/31 02:24:14;;;;;;;24.67;8.17;;;;;;;;;;6191247;23;20238;-88
2021/03/31 02:27:20;;;;;;;17.20;6.97;;;;;;;;;;6190125;23;20319;-89
2021/03/31 02:30:26;;;;;;;17.93;7.30;;;;;;;;;;6190847;23;20168;-88
2021/03/31 02:33:30;;;;;;;15.87;7.57;;;;;;;;;;6191756;23;20167;-90
2021/03/31 02:36:36;;;;;;;20.43;7.20;;;;;;;;;;6192210;23;20187;-88
2021/03/31 02:39:42;;;;;;;15.27;7.27;;;;;;;;;;6193106;23;20172;-88
2021/03/31 02:42:46;;;;;;;16.73;7.13;;;;;;;;;;6192930;23;20207;-89
2021/03/31 02:45:52;;;;;;;16.40;7.27;;;;;;;;;;6192000;23;20190;-87
2021/03/31 02:48:58;;;;;;;18.90;7.00;;;;;;;;;;6193639;23;20171;-87
2021/03/31 02:52:06;;;;;;;23.70;7.80;;;;;;;;;;6193053;23;20211;-88
2021/03/31 02:55:11;;;;;;;17.00;8.00;;;;;;;;;;6193155;23;20175;-87
2021/03/31 02:58:16;;;;;;;15.77;7.13;;;;;;;;;;6193957;23;20191;-87
2021/03/31 03:01:20;;;;;;;25.60;8.07;;;;;;;;;;6194117;23;20211;-87
2021/03/31 03:04:25;;;;;;;23.90;8.07;;;;;;;;;;6193026;23;20191;-88
2021/03/31 03:07:31;;;;;;;21.53;7.80;;;;;;;;;;6192445;23;20211;-87
2021/03/31 03:10:36;;;;;;;22.63;8.30;;;;;;;;;;6192838;23;20196;-88
2021/03/31 03:13:42;;;;;;;23.07;8.40;;;;;;;;;;6193140;23;20235;-86
2021/03/31 03:16:46;;;;;;;25.80;10.00;;;;;;;;;;6193454;23;20167;-89
2021/03/31 03:19:51;;;;;;;20.73;8.83;;;;;;;;;;6177485;23;20171;-87
2021/03/31 03:22:57;;;;;;;24.43;8.50;;;;;;;;;;6193454;23;20171;-87
2021/03/31 03:26:02;;;;;;;25.17;9.07;;;;;;;;;;6177267;23;20270;-87
2021/03/31 03:29:07;;;;;;;21.73;8.87;;;;;;;;;;6176621;23;20164;-87
2021/03/31 03:32:12;;;;;;;20.57;8.17;;;;;;;;;;6176400;23;20616;-90
2021/03/31 03:35:17;;;;;;;24.70;8.67;;;;;;;;;;6193833;23;20307;-87
2021/03/31 03:38:23;;;;;;;29.70;10.70;;;;;;;;;;6194744;23;20168;-88
2021/03/31 03:41:28;;;;;;;20.77;8.63;;;;;;;;;;6175351;23;20279;-85
2021/03/31 03:44:33;;;;;;;23.90;9.87;;;;;;;;;;6193630;23;20225;-88
2021/03/31 03:47:39;;;;;;;24.27;9.03;;;;;;;;;;6192848;23;20191;-88
2021/03/31 03:50:43;;;;;;;20.60;9.50;;;;;;;;;;6192174;23;20192;-87
2021/03/31 03:53:48;;;;;;;25.23;9.87;;;;;;;;;;6175475;23;20172;-88
2021/03/31 03:56:52;;;;;;;27.30;10.10;;;;;;;;;;6192535;23;20179;-85
2021/03/31 03:59:57;;;;;;;30.63;10.97;;;;;;;;;;6190355;23;20167;-85
2021/03/31 04:03:06;;;;;;;26.50;9.47;;;;;;;;;;6190389;23;20200;-87
2021/03/31 04:06:18;;;;;;;26.57;9.93;;;;;;;;;;6189114;23;20227;-87
2021/03/31 04:09:24;;;;;;;26.07;9.93;;;;;;;;;;6191556;23;20204;-89
2021/03/31 04:12:29;;;;;;;22.20;8.40;;;;;;;;;;6191072;23;20171;-86
2021/03/31 04:15:34;;;;;;;25.80;9.20;;;;;;;;;;6189716;23;20548;-88
2021/03/31 04:18:40;;;;;;;24.43;9.40;;;;;;;;;;6175534;23;20163;-88
2021/03/31 04:21:44;;;;;;;24.40;8.77;;;;;;;;;;6193159;23;20246;-88
2021/03/31 04:24:50;;;;;;;25.80;9.73;;;;;;;;;;6176595;23;20179;-90
2021/03/31 04:27:55;;;;;;;64.60;13.67;;;;;;;;;;6194704;23;20520;-88
2021/03/31 04:31:00;;;;;;;28.03;9.33;;;;;;;;;;6176270;23;20264;-88
2021/03/31 04:34:05;;;;;;;29.23;9.17;;;;;;;;;;6176133;23;20252;-87
2021/03/31 04:37:10;;;;;;;26.33;8.70;;;;;;;;;;6193704;23;20227;-87
2021/03/31 04:40:16;;;;;;;26.30;9.67;;;;;;;;;;6194170;23;20172;-88
2021/03/31 04:43:20;;;;;;;28.90;10.73;;;;;;;;;;6194648;23;20196;-89
2021/03/31 04:46:25;;;;;;;22.77;9.43;;;;;;;;;;6194992;23;20215;-88
2021/03/31 04:49:29;;;;;;;30.73;9.77;;;;;;;;;;6194234;23;20615;-87
2021/03/31 04:52:34;;;;;;;25.60;10.13;;;;;;;;;;6191726;23;20172;-89
2021/03/31 04:55:39;;;;;;;34.17;9.90;;;;;;;;;;6175530;23;20167;-89
2021/03/31 04:58:44;;;;;;;27.97;9.07;;;;;;;;;;6193516;23;20256;-88
2021/03/31 05:01:48;;;;;;;30.13;10.00;;;;;;;;;;6194228;23;20195;-87
2021/03/31 05:04:52;;;;;;;20.43;9.17;;;;;;;;;;6192133;23;20176;-87
2021/03/31 05:07:56;;;;;;;33.00;9.50;;;;;;;;;;6193727;23;20244;-88
2021/03/31 05:11:01;;;;;;;24.97;9.27;;;;;;;;;;6194873;23;20223;-87
2021/03/31 05:14:06;;;;;;;27.43;9.07;;;;;;;;;;6193021;23;20172;-89
2021/03/31 05:17:10;;;;;;;25.03;9.43;;;;;;;;;;6193337;23;20167;-88
2021/03/31 05:20:15;;;;;;;23.13;9.23;;;;;;;;;;6192695;23;20171;-88
2021/03/31 05:23:19;;;;;;;18.57;8.27;;;;;;;;;;6194142;23;20168;-87
2021/03/31 05:26:25;;;;;;;34.83;8.70;;;;;;;;;;6210114;23;20191;-89
2021/03/31 05:29:35;;;;;;;25.23;8.63;;;;;;;;;;6195195;23;20175;-88
2021/03/31 05:32:40;;;;;;;28.70;8.87;;;;;;;;;;6192830;23;20167;-87
2021/03/31 05:35:45;;;;;;;24.43;9.10;;;;;;;;;;6195403;23;20268;-89
2021/03/31 05:38:49;;;;;;;30.50;9.77;;;;;;;;;;6192845;23;20199;-89
2021/03/31 05:41:54;;;;;;;23.43;8.50;;;;;;;;;;6193443;23;20176;-88
2021/03/31 05:45:00;;;;;;;19.40;8.53;;;;;;;;;;6194890;23;20171;-88
2021/03/31 05:48:05;;;;;;;19.33;8.40;;;;;;;;;;6193450;23;20242;-89
2021/03/31 05:51:10;;;;;;;20.60;8.50;;;;;;;;;;6194517;23;20175;-87
2021/03/31 05:54:15;;;;;;;21.23;8.13;;;;;;;;;;6192867;23;20172;-89
2021/03/31 05:57:20;;;;;;;24.07;8.43;;;;;;;;;;6191302;23;20163;-90
2021/03/31 06:00:25;;;;;;;18.27;7.80;;;;;;;;;;6192316;23;20180;-89
2021/03/31 06:03:30;;;;;;;23.07;8.40;;;;;;;;;;6193819;23;20562;-88
2021/03/31 06:06:35;;;;;;;23.30;8.10;;;;;;;;;;6193400;23;20223;-89
2021/03/31 06:09:54;;;;;;;21.63;8.00;;;;;;;;;;6193609;23;20171;-88
2021/03/31 06:13:01;;;;;;;20.27;8.50;;;;;;;;;;6194709;23;20207;-87
2021/03/31 06:16:07;;;;;;;21.30;8.33;;;;;;;;;;6193437;23;20176;-90
2021/03/31 06:19:18;;;;;;;17.23;7.87;;;;;;;;;;6194056;23;20171;-87
2021/03/31 06:22:29;;;;;;;20.40;7.50;;;;;;;;;;6195820;23;20191;-88
2021/03/31 06:25:40;;;;;;;20.60;7.37;;;;;;;;;;6196542;23;20615;-90
2021/03/31 06:28:55;;;;;;;20.13;7.45;;;;;;;;;;6213909;22;20176;-89
2021/03/31 06:32:14;;;;;;;15.63;6.63;;;;;;;;;;6177819;23;20183;-89
2021/03/31 06:35:19;;;;;;;16.38;6.78;;;;;;;;;;6198005;23;20172;-89
2021/03/31 06:38:29;;;;;;;21.73;6.90;;;;;;;;;;6200298;23;20168;-89
2021/03/31 06:41:36;;;;;;;18.83;7.25;;;;;;;;;;6199752;23;20191;-89
2021/03/31 06:44:52;;;;;;;18.10;7.88;;;;;;;;;;6198585;23;20176;-88
2021/03/31 06:47:59;;;;;;;17.27;7.82;;;;;;;;;;6197352;23;20704;-88
2021/03/31 06:51:04;;;;;;;23.67;8.40;;;;;;;;;;6196244;23;20175;-88
2021/03/31 06:54:13;;;;;;;21.67;8.30;;;;;;;;;;6195920;23;20163;-89
2021/03/31 06:57:24;;;;;;;18.30;7.90;;;;;;;;;;6197758;23;20199;-88
2021/03/31 07:00:29;;;;;;;23.67;8.60;;;;;;;;;;6198105;23;20167;-88
2021/03/31 07:03:35;;;;;;;19.93;7.30;;;;;;;;;;6197804;23;20635;-89
2021/03/31 07:06:40;;;;;;;17.90;8.00;;;;;;;;;;6197753;23;20192;-87
2021/03/31 07:09:44;;;;;;;21.63;7.83;;;;;;;;;;6199336;23;20163;-88
2021/03/31 07:12:50;;;;;;;21.30;7.77;;;;;;;;;;6196939;23;20156;-87
2021/03/31 07:15:56;;;;;;;19.80;7.53;;;;;;;;;;6196326;23;20168;-87
2021/03/31 07:19:01;;;;;;;25.00;7.63;;;;;;;;;;6198765;23;20159;-87
2021/03/31 07:22:05;;;;;;;22.37;7.80;;;;;;;;;;6199309;23;20163;-88
2021/03/31 07:25:11;;;;;;;21.23;7.93;;;;;;;;;;6198813;23;20192;-89
2021/03/31 07:28:17;;;;;;;18.57;7.80;;;;;;;;;;6183016;23;20191;-88
2021/03/31 07:31:27;;;;;;;23.20;8.00;;;;;;;;;;6180761;23;20167;-88
2021/03/31 07:34:33;;;;;;;20.60;7.07;;;;;;;;;;6181780;23;20168;-88
2021/03/31 07:37:38;;;;;;;19.23;7.33;;;;;;;;;;6199137;23;20168;-88
2021/03/31 10:48:51;;;;;;;15.68;8.20;;;;;;;;;;6158346;23;595297;-89
2021/03/31 10:51:58;;;;;;;18.42;8.15;;;;;;;;;;6193366;23;20170;-90
2021/03/31 10:55:03;;;;;;;22.77;8.73;;;;;;;;;;6194672;23;20167;-92
2021/03/31 10:58:07;;;;;;;17.38;8.02;;;;;;;;;;6195558;23;20246;-92
2021/03/31 11:01:12;;;;;;;21.67;8.93;;;;;;;;;;6202623;23;20213;-91
2021/03/31 11:04:19;;;;;;;21.10;9.18;;;;;;;;;;6198663;23;20167;-93
2021/03/31 11:07:24;;;;;;;23.20;8.82;;;;;;;;;;6179202;23;20167;-92
2021/03/31 11:10:28;;;;;;;19.85;8.93;;;;;;;;;;6203299;23;20167;-93
2021/03/31 11:13:33;;;;;;;16.13;8.60;;;;;;;;;;6201784;23;20186;-93
2021/03/31 11:16:40;;;;;;;19.08;9.52;;;;;;;;;;6197739;23;20194;-92
2021/03/31 11:20:03;;;;;;;26.92;9.57;;;;;;;;;;6188384;23;20187;-94
2021/03/31 12:28:10;;;;;;;15.43;8.20;;;;;;;;;;6192251;23;20204;-91
2021/03/31 12:31:16;;;;;;;14.90;7.30;;;;;;;;;;6197514;23;20163;-91
2021/03/31 12:34:20;;;;;;;13.38;6.82;;;;;;;;;;6182565;23;20235;-94
2021/03/31 12:37:31;;;;;;;12.05;6.78;;;;;;;;;;6198158;23;20218;-90
2021/03/31 12:40:40;;;;;;;11.15;6.25;;;;;;;;;;6198891;23;20175;-93
2021/03/31 12:43:51;;;;;;;9.90;5.15;;;;;;;;;;6198276;23;20183;-91
2021/03/31 12:46:56;;;;;;;17.30;6.80;;;;;;;;;;6196689;23;20626;-92
2021/03/31 12:50:01;;;;;;;12.57;4.88;;;;;;;;;;6198128;23;20171;-92
2021/03/31 12:53:14;;;;;;;8.05;4.60;;;;;;;;;;6196879;23;20175;-93
2021/03/31 12:56:21;;;;;;;8.50;4.57;;;;;;;;;;6198712;23;20156;-92
2021/03/31 12:59:26;;;;;;;14.25;6.88;;;;;;;;;;6196768;23;20299;-92
2021/03/31 13:02:31;;;;;;;9.05;4.30;;;;;;;;;;6198378;23;20232;-93
2021/03/31 18:51:36;;;;;;;17.70;5.70;;;;;;;;;;6183178;23;20216;-90
2021/03/31 18:54:40;;;;;;;14.60;5.68;;;;;;;;;;6177526;23;20182;-91
2021/03/31 18:57:44;;;;;;;23.70;6.05;;;;;;;;;;6193528;23;20167;-91
2021/03/31 19:00:49;;;;;;;20.00;6.60;;;;;;;;;;6195519;23;20217;-90
2021/03/31 19:03:55;;;;;;;17.17;6.97;;;;;;;;;;6195729;23;20183;-90
2021/03/31 19:07:02;;;;;;;17.90;6.28;;;;;;;;;;6177028;23;20702;-89
2021/03/31 19:13:31;;;;;;;12.13;6.25;;;;;;;;;;6195254;23;20239;-89
2021/03/31 19:16:36;;;;;;;13.18;5.80;;;;;;;;;;6178235;23;20171;-90
2021/03/31 19:19:41;;;;;;;17.10;6.18;;;;;;;;;;6196883;23;20175;-90
2021/03/31 19:22:47;;;;;;;18.50;6.15;;;;;;;;;;6197330;23;20184;-90
2021/03/31 19:25:52;;;;;;;16.33;7.07;;;;;;;;;;6197523;23;20172;-90
2021/03/31 19:28:56;;;;;;;15.30;6.78;;;;;;;;;;6195466;23;20611;-89
2021/03/31 19:32:01;;;;;;;20.52;6.85;;;;;;;;;;6196321;23;20180;-91
2021/03/31 19:35:07;;;;;;;20.63;7.13;;;;;;;;;;6196344;23;20167;-91
2021/03/31 19:38:13;;;;;;;14.20;7.07;;;;;;;;;;6200490;23;20168;-89
2021/03/31 19:41:18;;;;;;;15.60;6.43;;;;;;;;;;6196813;23;20699;-90
2021/03/31 19:44:23;;;;;;;16.25;6.10;;;;;;;;;;6202582;23;20172;-91
2021/03/31 19:47:30;;;;;;;19.85;6.28;;;;;;;;;;6200575;23;20284;-91
2021/03/31 19:50:38;;;;;;;18.85;6.28;;;;;;;;;;6197381;23;20196;-90
2021/03/31 19:53:44;;;;;;;19.88;6.95;;;;;;;;;;6199130;23;20623;-89
2021/03/31 19:56:49;;;;;;;14.30;5.85;;;;;;;;;;6197473;23;20167;-90
2021/03/31 19:59:53;;;;;;;18.25;9.32;;;;;;;;;;6199879;23;20172;-91
2021/03/31 20:02:58;;;;;;;19.95;8.68;;;;;;;;;;6182397;23;20719;-89
2021/03/31 20:06:03;;;;;;;17.63;7.13;;;;;;;;;;6196855;23;20170;-90
2021/03/31 20:09:09;;;;;;;14.52;6.38;;;;;;;;;;6197731;23;20152;-91
2021/03/31 20:12:13;;;;;;;16.80;5.82;;;;;;;;;;6200161;23;20635;-91
2021/03/31 20:15:19;;;;;;;16.38;5.60;;;;;;;;;;6198884;23;20172;-92
2021/03/31 20:18:33;;;;;;;19.02;8.40;;;;;;;;;;6181419;23;20227;-92
2021/03/31 20:21:37;;;;;;;18.65;7.20;;;;;;;;;;6198852;23;20204;-90
2021/03/31 20:24:43;;;;;;;20.75;7.90;;;;;;;;;;6197357;23;20176;-90
2021/03/31 20:27:49;;;;;;;17.25;6.97;;;;;;;;;;6199168;23;20195;-89
2021/03/31 20:30:54;;;;;;;17.25;6.55;;;;;;;;;;6197088;23;20251;-90
2021/03/31 20:34:03;;;;;;;26.55;8.40;;;;;;;;;;6196321;23;20163;-89
2021/03/31 20:37:07;;;;;;;14.38;6.70;;;;;;;;;;6197117;23;20160;-92
2021/03/31 20:40:14;;;;;;;14.80;5.85;;;;;;;;;;6200055;23;20236;-90
2021/03/31 20:43:19;;;;;;;19.30;5.53;;;;;;;;;;6199240;23;20172;-91
2021/03/31 20:46:23;;;;;;;12.70;4.80;;;;;;;;;;6196859;23;20173;-90
2021/03/31 20:49:28;;;;;;;14.80;5.13;;;;;;;;;;6198084;23;20222;-91
2021/03/31 20:52:32;;;;;;;13.57;5.32;;;;;;;;;;6197942;23;20671;-90
2021/03/31 20:55:37;;;;;;;12.43;5.07;;;;;;;;;;6180708;23;20241;-92
2021/03/31 20:58:42;;;;;;;14.68;5.53;;;;;;;;;;6181044;23;20168;-89
2021/03/31 21:01:50;;;;;;;16.90;6.13;;;;;;;;;;6195328;23;20627;-91
2021/03/31 21:04:55;;;;;;;12.65;5.88;;;;;;;;;;6177695;23;20171;-89
2021/03/31 21:07:59;;;;;;;10.98;5.63;;;;;;;;;;6195266;23;20196;-91
2021/03/31 21:11:05;;;;;;;17.40;5.03;;;;;;;;;;6195412;23;20227;-91
2021/03/31 21:14:10;;;;;;;14.00;5.32;;;;;;;;;;6194455;23;20168;-89
2021/03/31 21:17:14;;;;;;;17.10;5.28;;;;;;;;;;6196810;23;20175;-90
2021/03/31 21:20:19;;;;;;;14.10;5.57;;;;;;;;;;6209280;23;20652;-90
2021/03/31 21:23:24;;;;;;;16.70;6.03;;;;;;;;;;6196566;23;20200;-89
2021/03/31 21:26:31;;;;;;;15.55;5.65;;;;;;;;;;6196672;23;20187;-90
2021/03/31 21:29:36;;;;;;;15.93;5.82;;;;;;;;;;6196990;23;20163;-88
2021/03/31 21:32:41;;;;;;;13.73;5.15;;;;;;;;;;6181208;23;20172;-90
2021/03/31 21:35:45;;;;;;;11.02;5.13;;;;;;;;;;6195717;23;20554;-88
2021/03/31 21:38:50;;;;;;;13.10;5.17;;;;;;;;;;6195084;23;20619;-90
2021/03/31 21:41:56;;;;;;;17.87;5.57;;;;;;;;;;6193475;23;20159;-90
2021/03/31 21:45:00;;;;;;;12.20;5.60;;;;;;;;;;6194095;23;20216;-90
2021/03/31 21:48:05;;;;;;;10.73;5.37;;;;;;;;;;6196232;23;20200;-91
2021/03/31 21:51:10;;;;;;;14.77;5.47;;;;;;;;;;6201450;23;20188;-89
2021/03/31 21:54:14;;;;;;;13.67;4.70;;;;;;;;;;6194519;23;20171;-90
2021/03/31 21:57:19;;;;;;;16.77;5.50;;;;;;;;;;6214031;23;20164;-90
2021/03/31 22:00:24;;;;;;;13.07;5.07;;;;;;;;;;6194731;23;20176;-90
2021/03/31 22:03:28;;;;;;;13.67;5.13;;;;;;;;;;6192882;23;20196;-90
2021/03/31 22:06:33;;;;;;;11.90;5.70;;;;;;;;;;6193923;23;20207;-91
2021/03/31 22:09:38;;;;;;;13.40;4.80;;;;;;;;;;6195411;23;20171;-90
2021/03/31 22:12:44;;;;;;;11.23;4.93;;;;;;;;;;6194676;23;20180;-89
2021/03/31 22:15:48;;;;;;;13.40;5.27;;;;;;;;;;6193521;23;20171;-89
2021/03/31 22:18:53;;;;;;;12.67;5.13;;;;;;;;;;6194305;23;20176;-90
2021/03/31 22:21:57;;;;;;;17.57;5.30;;;;;;;;;;6192639;23;20184;-90
2021/03/31 22:25:02;;;;;;;14.40;5.50;;;;;;;;;;6192831;23;20172;-89
2021/03/31 22:28:07;;;;;;;14.30;5.50;;;;;;;;;;6193263;23;20242;-90
2021/03/31 22:31:17;;;;;;;17.20;5.60;;;;;;;;;;6192910;23;20171;-90
2021/03/31 22:34:22;;;;;;;10.90;5.30;;;;;;;;;;6194167;23;20172;-90
2021/03/31 22:37:26;;;;;;;13.00;5.93;;;;;;;;;;6193064;23;20164;-88
2021/03/31 22:40:32;;;;;;;14.93;5.67;;;;;;;;;;6193295;23;20171;-89
2021/03/31 22:43:37;;;;;;;11.73;5.70;;;;;;;;;;6193706;23;20191;-90
2021/03/31 22:46:41;;;;;;;14.40;6.10;;;;;;;;;;6193522;23;20183;-90
2021/03/31 22:49:46;;;;;;;16.73;5.83;;;;;;;;;;6193002;23;20171;-89
2021/03/31 22:52:52;;;;;;;13.97;6.70;;;;;;;;;;6193773;23;20207;-90
2021/03/31 22:55:57;;;;;;;11.83;5.17;;;;;;;;;;6194607;23;20504;-90
2021/03/31 22:59:02;;;;;;;16.70;6.30;;;;;;;;;;6177819;23;20164;-89
2021/03/31 23:02:06;;;;;;;18.70;5.93;;;;;;;;;;6194365;23;20168;-89
2021/03/31 23:05:14;;;;;;;11.87;4.90;;;;;;;;;;6193458;23;20219;-89
2021/03/31 23:08:19;;;;;;;11.20;5.30;;;;;;;;;;6194018;23;20191;-89
2021/03/31 23:11:24;;;;;;;12.03;4.47;;;;;;;;;;6176680;23;20223;-89
2021/03/31 23:14:29;;;;;;;13.63;5.97;;;;;;;;;;6193855;23;20167;-89
2021/03/31 23:17:33;;;;;;;11.27;5.37;;;;;;;;;;6194117;23;20167;-89
2021/03/31 23:20:38;;;;;;;12.27;5.70;;;;;;;;;;6195279;23;20248;-89
2021/03/31 23:23:43;;;;;;;14.20;5.83;;;;;;;;;;6195386;23;20179;-92
2021/03/31 23:26:48;;;;;;;16.07;5.43;;;;;;;;;;6196482;23;20298;-89
2021/03/31 23:29:53;;;;;;;14.00;5.50;;;;;;;;;;6194142;23;20216;-90
2021/03/31 23:32:57;;;;;;;20.73;5.67;;;;;;;;;;6195605;23;20171;-91
2021/03/31 23:36:02;;;;;;;14.77;5.63;;;;;;;;;;6194263;23;20645;-91
2021/03/31 23:39:07;;;;;;;13.37;5.50;;;;;;;;;;6176937;23;20513;-91
2021/03/31 23:42:12;;;;;;;14.97;5.43;;;;;;;;;;6193397;23;20504;-91
2021/03/31 23:45:18;;;;;;;16.80;5.60;;;;;;;;;;6192386;23;20196;-92
2021/03/31 23:48:23;;;;;;;13.27;5.70;;;;;;;;;;6194182;23;20196;-91
2021/03/31 23:51:28;;;;;;;17.33;5.43;;;;;;;;;;6204706;23;20195;-91
2021/03/31 23:54:32;;;;;;;12.97;5.83;;;;;;;;;;6211286;23;20188;-90
2021/03/31 23:57:36;;;;;;;15.00;5.90;;;;;;;;;;6193710;23;20227;-90
